Nashville, TN (JWN)


Given the close proximity to downtown Nashville, Tennessee, John Tune (JWN) is a great place for the general aviation enthusiast or for someone learning how to fly. Wings of Eagles Aviation’s office is located in Hangar 1, and is accessible from the road or the ramp. The FBO is open 24 hours a day 7 days a week so there will always be someone available for help or fuel.

Address:
210 Tune Airport Dr.
Nashville, TN 37209

Phone: (615) 979-9222

Business Hours:
Monday-Sunday 7a-10p

Wings JWN

NOAA Weather

Nashville, TN

Last Updated on Feb 22 2018, 8:53 pm CST

Current Conditions: Fog

NOAA Icon

Temp: 58°F

Wind: East at 3mph

Humidity: 97%

Dewpoint: 57.0°F

Your 5-Day Forecast at a Glance

Available data for KBNA from the past 2 hours
NASHVILLE, TN
Metar
KBNA 230320Z 00000KT 1/2SM R02L/2800V5000FT FG BKN003 OVC065 14/14 A3033 RMK AO2 T01440139

03:20 UTC

Wind: 0° 0kt

Visibility: 0.5 SM

Sky: BKN 300 ft

Temp: 14 deg C / 57.2 deg F

Dewpoint: 14 deg C / 57.2 deg F

Pressure: 30.33 inHg

TAF
KBNA 230222Z 2302/2324 00000KT 1/4SM FG VV002 FM230600 17006KT P6SM BKN050 FM230800 19008KT 4SM BR VCSH OVC015 FM231500 21011KT P6SM BKN100